createdAt,value
2018-03-04T00:00:30.638Z,18.79
2018-03-04T00:01:30.653Z,18.79
2018-03-04T00:02:30.645Z,18.79
2018-03-04T00:03:30.645Z,18.74
2018-03-04T00:04:30.649Z,18.65
2018-03-04T00:05:30.651Z,18.69
2018-03-04T00:06:30.657Z,18.59
2018-03-04T00:07:30.655Z,18.66
2018-03-04T00:08:30.659Z,18.47
2018-03-04T00:09:30.662Z,18.65
2018-03-04T00:10:30.663Z,18.66
2018-03-04T00:11:30.665Z,18.62
2018-03-04T00:12:30.669Z,18.62
2018-03-04T00:13:30.671Z,18.53
2018-03-04T00:14:30.674Z,18.56
2018-03-04T00:15:30.677Z,18.57
2018-03-04T00:16:30.683Z,18.42
2018-03-04T00:17:30.680Z,18.54
2018-03-04T00:18:30.683Z,18.47
2018-03-04T00:19:30.685Z,18.44
2018-03-04T00:20:30.687Z,18.44
2018-03-04T00:21:30.690Z,18.50
2018-03-04T00:22:30.693Z,18.39
2018-03-04T00:23:30.696Z,18.46
2018-03-04T00:24:30.697Z,18.35
2018-03-04T00:25:30.700Z,18.36
2018-03-04T00:26:30.703Z,18.32
2018-03-04T00:27:30.704Z,18.29
2018-03-04T00:28:30.706Z,18.32
2018-03-04T00:29:30.709Z,18.29
2018-03-04T00:30:30.712Z,18.29
2018-03-04T00:31:30.713Z,18.19
2018-03-04T00:32:30.721Z,18.17
2018-03-04T00:33:30.718Z,18.16
2018-03-04T00:34:30.744Z,18.10
2018-03-04T00:35:30.723Z,18.07
2018-03-04T00:36:30.725Z,18.04
2018-03-04T00:37:30.728Z,18.11
2018-03-04T00:38:30.728Z,18.04
2018-03-04T00:39:30.730Z,17.98
2018-03-04T00:40:30.733Z,17.95
2018-03-04T00:41:30.734Z,17.96
2018-03-04T00:42:30.738Z,17.96
2018-03-04T00:43:30.740Z,17.89
2018-03-04T00:44:30.741Z,17.84
2018-03-04T00:45:30.744Z,17.83
2018-03-04T00:46:30.747Z,17.92
2018-03-04T00:47:30.748Z,17.89
2018-03-04T00:48:30.750Z,17.84
2018-03-04T00:49:30.753Z,17.81
2018-03-04T00:50:30.755Z,17.86
2018-03-04T00:51:30.756Z,17.73
2018-03-04T00:52:30.758Z,17.76
2018-03-04T00:53:30.761Z,17.68
2018-03-04T00:54:30.761Z,17.74
2018-03-04T00:55:30.762Z,17.71
2018-03-04T00:56:30.766Z,17.76
2018-03-04T00:57:30.766Z,17.70
2018-03-04T00:58:30.771Z,17.62
2018-03-04T00:59:30.774Z,17.58
2018-03-04T01:00:30.773Z,17.58
2018-03-04T01:01:30.775Z,17.60
2018-03-04T01:02:30.777Z,17.63
2018-03-04T01:03:30.778Z,17.58
2018-03-04T01:04:30.780Z,17.54
2018-03-04T01:05:30.781Z,17.49
2018-03-04T01:06:30.788Z,17.46
2018-03-04T01:07:30.787Z,17.45
2018-03-04T01:08:30.787Z,17.45
2018-03-04T01:09:30.790Z,17.45
2018-03-04T01:10:30.791Z,17.47
2018-03-04T01:11:30.793Z,17.51
2018-03-04T01:12:30.793Z,17.54
2018-03-04T01:13:30.796Z,17.45
2018-03-04T01:14:30.798Z,17.38
2018-03-04T01:15:30.800Z,17.39
2018-03-04T01:16:30.802Z,17.39
2018-03-04T01:17:30.802Z,17.33
2018-03-04T01:18:30.805Z,17.33
2018-03-04T01:19:30.807Z,17.28
2018-03-04T01:20:30.809Z,17.28
2018-03-04T01:21:30.810Z,17.32
2018-03-04T01:22:30.811Z,17.32
2018-03-04T01:23:30.813Z,17.32
2018-03-04T01:24:30.815Z,17.18
2018-03-04T01:25:30.816Z,17.25
2018-03-04T01:26:30.819Z,17.27
2018-03-04T01:27:30.820Z,17.14
2018-03-04T01:28:30.821Z,17.17
2018-03-04T01:29:30.823Z,17.17
2018-03-04T01:30:30.824Z,17.18
2018-03-04T01:31:30.826Z,17.24
2018-03-04T01:32:30.828Z,17.15
2018-03-04T01:33:30.830Z,17.17
2018-03-04T01:34:30.832Z,17.17
2018-03-04T01:35:30.832Z,17.12
2018-03-04T01:36:30.833Z,17.05
2018-03-04T01:37:30.840Z,17.10
2018-03-04T01:38:30.837Z,17.00
2018-03-04T01:39:30.839Z,17.05
2018-03-04T01:40:30.839Z,17.05
2018-03-04T01:41:30.844Z,16.92
2018-03-04T01:42:30.844Z,16.98
2018-03-04T01:43:30.843Z,16.99
2018-03-04T01:44:30.846Z,16.98
2018-03-04T01:45:30.848Z,16.95
2018-03-04T01:46:30.849Z,16.95
2018-03-04T01:47:30.852Z,16.90
2018-03-04T01:48:30.851Z,16.90
2018-03-04T01:49:30.853Z,16.95
2018-03-04T01:50:30.855Z,16.88
2018-03-04T01:51:30.855Z,16.90
2018-03-04T01:52:30.858Z,16.84
2018-03-04T01:53:30.860Z,16.85
2018-03-04T01:54:30.862Z,16.82
2018-03-04T01:55:30.861Z,16.82
2018-03-04T01:56:30.862Z,16.80
2018-03-04T01:57:30.864Z,16.81
2018-03-04T01:58:30.866Z,16.77
2018-03-04T01:59:30.867Z,16.75
2018-03-04T02:00:30.868Z,16.75
2018-03-04T02:01:30.874Z,16.70
2018-03-04T02:02:30.872Z,16.69
2018-03-04T02:03:30.873Z,16.72
2018-03-04T02:04:30.873Z,16.77
2018-03-04T02:05:30.874Z,16.82
2018-03-04T02:06:30.877Z,16.78
2018-03-04T02:07:30.877Z,16.72
2018-03-04T02:08:30.881Z,16.73
2018-03-04T02:09:30.882Z,16.75
2018-03-04T02:10:30.882Z,16.67
2018-03-04T02:11:30.883Z,16.69
2018-03-04T02:12:30.886Z,16.66
2018-03-04T02:13:30.885Z,16.67
2018-03-04T02:14:30.887Z,16.59
2018-03-04T02:15:30.888Z,16.65
2018-03-04T02:16:30.889Z,16.52
2018-03-04T02:17:30.896Z,16.51
2018-03-04T02:18:30.892Z,16.55
2018-03-04T02:19:30.893Z,16.52
2018-03-04T02:20:30.894Z,16.52
2018-03-04T02:21:30.896Z,16.48
2018-03-04T02:22:30.897Z,16.50
2018-03-04T02:23:30.897Z,16.52
2018-03-04T02:24:30.899Z,16.52
2018-03-04T02:25:30.901Z,16.50
2018-03-04T02:26:30.902Z,16.47
2018-03-04T02:27:30.902Z,16.45
2018-03-04T02:28:30.903Z,16.33
2018-03-04T02:29:30.904Z,16.42
2018-03-04T02:30:30.908Z,16.44
2018-03-04T02:31:30.908Z,16.37
2018-03-04T02:32:30.909Z,16.40
2018-03-04T02:33:30.910Z,16.42
2018-03-04T02:34:30.912Z,16.40
2018-03-04T02:35:30.913Z,16.33
2018-03-04T02:36:30.964Z,16.41
2018-03-04T02:37:30.916Z,16.26
2018-03-04T02:38:30.916Z,16.33
2018-03-04T02:39:30.915Z,16.33
2018-03-04T02:40:30.919Z,16.30
2018-03-04T02:41:30.917Z,16.26
2018-03-04T02:42:30.922Z,16.30
2018-03-04T02:43:30.921Z,16.32
2018-03-04T02:44:30.921Z,16.26
2018-03-04T02:45:30.923Z,16.25
2018-03-04T02:46:30.924Z,16.22
2018-03-04T02:47:30.924Z,16.22
2018-03-04T02:48:30.926Z,16.14
2018-03-04T02:49:30.930Z,16.14
2018-03-04T02:50:30.929Z,16.22
2018-03-04T02:51:30.936Z,16.25
2018-03-04T02:52:30.930Z,16.14
2018-03-04T02:53:30.943Z,16.16
2018-03-04T02:54:30.932Z,16.18
2018-03-04T02:55:30.933Z,16.16
2018-03-04T02:56:30.935Z,16.07
2018-03-04T02:57:30.934Z,16.10
2018-03-04T02:58:30.936Z,16.13
2018-03-04T02:59:30.935Z,16.11
2018-03-04T03:00:30.938Z,16.10
2018-03-04T03:01:30.939Z,16.10
2018-03-04T03:02:30.942Z,16.10
2018-03-04T03:03:30.940Z,16.11
2018-03-04T03:04:30.944Z,16.08
2018-03-04T03:05:30.942Z,15.96
2018-03-04T03:06:30.944Z,15.96
2018-03-04T03:07:30.943Z,16.01
2018-03-04T03:08:30.944Z,15.95
2018-03-04T03:09:30.945Z,15.98
2018-03-04T03:10:30.947Z,15.85
2018-03-04T03:11:30.946Z,15.89
2018-03-04T03:12:30.948Z,15.91
2018-03-04T03:13:30.954Z,15.95
2018-03-04T03:14:30.951Z,15.96
2018-03-04T03:15:30.950Z,15.85
2018-03-04T03:16:30.951Z,15.88
2018-03-04T03:17:30.953Z,15.88
2018-03-04T03:18:30.956Z,15.81
2018-03-04T03:19:30.955Z,15.84
2018-03-04T03:20:30.955Z,15.88
2018-03-04T03:21:30.958Z,15.88
2018-03-04T03:22:30.957Z,15.84
2018-03-04T03:23:30.956Z,15.89
2018-03-04T03:24:30.958Z,15.85
2018-03-04T03:25:30.959Z,15.78
2018-03-04T03:26:30.959Z,15.77
2018-03-04T03:27:30.959Z,15.77
2018-03-04T03:28:30.961Z,15.77
2018-03-04T03:29:30.961Z,15.78
2018-03-04T03:30:30.963Z,15.77
2018-03-04T03:31:30.968Z,15.68
2018-03-04T03:32:30.964Z,15.73
2018-03-04T03:33:30.965Z,15.71
2018-03-04T03:34:30.964Z,15.77
2018-03-04T03:35:30.965Z,15.68
2018-03-04T03:36:30.965Z,15.73
2018-03-04T03:37:30.967Z,15.67
2018-03-04T03:38:30.968Z,15.64
2018-03-04T03:39:30.968Z,15.70
2018-03-04T03:40:30.972Z,15.70
2018-03-04T03:41:30.970Z,15.62
2018-03-04T03:42:30.970Z,15.67
2018-03-04T03:43:30.971Z,15.64
2018-03-04T03:44:30.972Z,15.67
2018-03-04T03:45:30.973Z,15.68
2018-03-04T03:46:30.974Z,15.62
2018-03-04T03:47:30.973Z,15.64
2018-03-04T03:48:30.974Z,15.60
2018-03-04T03:49:30.979Z,15.51
2018-03-04T03:50:30.977Z,15.53
2018-03-04T03:51:30.977Z,15.52
2018-03-04T03:52:30.980Z,15.60
2018-03-04T03:53:30.978Z,15.55
2018-03-04T03:54:30.978Z,15.59
2018-03-04T03:55:30.979Z,15.55
2018-03-04T03:56:30.980Z,15.55
2018-03-04T03:57:30.981Z,15.53
2018-03-04T03:58:30.980Z,15.62
2018-03-04T03:59:30.981Z,15.58
2018-03-04T04:00:30.984Z,15.58
2018-03-04T04:01:30.984Z,15.58
2018-03-04T04:02:30.984Z,15.58
2018-03-04T04:03:30.985Z,15.49
2018-03-04T04:04:30.984Z,15.56
2018-03-04T04:05:30.985Z,15.48
2018-03-04T04:06:30.988Z,15.52
2018-03-04T04:07:30.986Z,15.56
2018-03-04T04:08:30.987Z,15.41
2018-03-04T04:09:30.988Z,15.44
2018-03-04T04:10:30.988Z,15.41
2018-03-04T04:11:30.989Z,15.46
2018-03-04T04:12:30.990Z,15.34
2018-03-04T04:13:30.992Z,15.41
2018-03-04T04:14:30.990Z,15.41
2018-03-04T04:15:30.993Z,15.33
2018-03-04T04:16:30.991Z,15.46
2018-03-04T04:17:30.992Z,15.38
2018-03-04T04:18:30.992Z,15.44
2018-03-04T04:19:30.993Z,15.33
2018-03-04T04:20:30.994Z,15.34
2018-03-04T04:21:30.999Z,15.37
2018-03-04T04:22:30.996Z,15.30
2018-03-04T04:23:30.997Z,15.34
2018-03-04T04:24:30.997Z,15.40
2018-03-04T04:25:30.999Z,15.37
2018-03-04T04:26:30.998Z,15.33
2018-03-04T04:27:30.997Z,15.35
2018-03-04T04:28:30.997Z,15.35
2018-03-04T04:29:30.999Z,15.33
2018-03-04T04:30:31.001Z,15.33
2018-03-04T04:31:31.000Z,15.44
2018-03-04T04:32:31.001Z,15.35
2018-03-04T04:33:31.002Z,15.25
2018-03-04T04:34:31.002Z,15.23
2018-03-04T04:35:31.002Z,15.25
2018-03-04T04:36:31.006Z,15.23
2018-03-04T04:37:31.005Z,15.25
2018-03-04T04:38:31.010Z,15.30
2018-03-04T04:39:31.006Z,15.22
2018-03-04T04:40:31.005Z,15.22
2018-03-04T04:41:31.006Z,15.33
2018-03-04T04:42:31.006Z,15.34
2018-03-04T04:43:31.007Z,15.30
2018-03-04T04:44:31.008Z,15.23
2018-03-04T04:45:31.014Z,15.25
2018-03-04T04:46:31.010Z,15.28
2018-03-04T04:47:31.011Z,15.23
2018-03-04T04:48:31.011Z,15.28
2018-03-04T04:49:31.013Z,15.30
2018-03-04T04:50:31.011Z,15.28
2018-03-04T04:51:31.012Z,15.28
2018-03-04T04:52:31.013Z,15.25
2018-03-04T04:53:31.012Z,15.19
2018-03-04T04:54:31.018Z,15.30
2018-03-04T04:55:31.014Z,15.20
2018-03-04T04:56:31.015Z,15.22
2018-03-04T04:57:31.014Z,15.23
2018-03-04T04:58:31.015Z,15.30
2018-03-04T04:59:31.016Z,15.23
2018-03-04T05:00:31.017Z,15.25
2018-03-04T05:01:31.016Z,15.18
2018-03-04T05:02:31.023Z,15.31
2018-03-04T05:03:31.017Z,15.33
2018-03-04T05:04:31.019Z,15.30
2018-03-04T05:05:31.024Z,15.33
2018-03-04T05:06:31.020Z,15.41
2018-03-04T05:07:31.020Z,15.31
2018-03-04T05:08:31.020Z,15.34
2018-03-04T05:09:31.021Z,15.46
2018-03-04T05:10:31.020Z,15.46
2018-03-04T05:11:31.021Z,15.52
2018-03-04T05:12:31.022Z,15.64
2018-03-04T05:13:31.026Z,15.70
2018-03-04T05:14:31.022Z,15.67
2018-03-04T05:15:31.025Z,15.78
2018-03-04T05:16:31.022Z,15.76
2018-03-04T05:17:31.025Z,15.80
2018-03-04T05:18:31.028Z,15.81
2018-03-04T05:19:31.027Z,15.85
2018-03-04T05:20:31.026Z,15.89
2018-03-04T05:21:31.027Z,15.96
2018-03-04T05:22:31.028Z,15.95
2018-03-04T05:23:31.026Z,15.92
2018-03-04T05:24:31.027Z,16.10
2018-03-04T05:25:31.028Z,16.17
2018-03-04T05:26:31.030Z,16.13
2018-03-04T05:27:31.031Z,16.22
2018-03-04T05:28:31.031Z,16.33
2018-03-04T05:29:31.030Z,16.30
2018-03-04T05:30:31.032Z,16.33
2018-03-04T05:31:31.033Z,16.48
2018-03-04T05:32:31.033Z,16.44
2018-03-04T05:33:31.033Z,16.52
2018-03-04T05:34:31.035Z,16.55
2018-03-04T05:35:31.036Z,16.63
2018-03-04T05:36:31.037Z,16.75
2018-03-04T05:37:31.039Z,16.65
2018-03-04T05:38:31.040Z,16.72
2018-03-04T05:39:31.039Z,16.82
2018-03-04T05:40:31.041Z,16.80
2018-03-04T05:41:31.042Z,16.82
2018-03-04T05:42:31.044Z,16.96
2018-03-04T05:43:31.045Z,17.02
2018-03-04T05:44:31.046Z,17.09
2018-03-04T05:45:31.047Z,17.03
2018-03-04T05:46:31.049Z,17.17
2018-03-04T05:47:31.050Z,17.24
2018-03-04T05:48:31.050Z,17.14
2018-03-04T05:49:31.051Z,17.30
2018-03-04T05:50:31.054Z,17.20
2018-03-04T05:51:31.054Z,17.27
2018-03-04T05:52:31.054Z,17.35
2018-03-04T05:53:31.057Z,17.45
2018-03-04T05:54:31.058Z,17.51
2018-03-04T05:55:31.063Z,17.55
2018-03-04T05:56:31.060Z,17.54
2018-03-04T05:57:31.065Z,17.54
2018-03-04T05:58:31.063Z,17.57
2018-03-04T05:59:31.064Z,17.58
2018-03-04T06:00:31.066Z,17.70
2018-03-04T06:01:31.068Z,17.71
2018-03-04T06:02:31.070Z,17.84
2018-03-04T06:03:31.071Z,17.83
2018-03-04T06:04:31.073Z,17.95
2018-03-04T06:05:31.074Z,17.96
2018-03-04T06:06:31.077Z,18.05
2018-03-04T06:07:31.076Z,18.13
2018-03-04T06:08:31.080Z,18.23
2018-03-04T06:09:31.081Z,18.28
2018-03-04T06:10:31.085Z,18.17
2018-03-04T06:11:31.085Z,18.28
2018-03-04T06:12:31.085Z,18.34
2018-03-04T06:13:31.089Z,18.38
2018-03-04T06:14:31.092Z,18.31
2018-03-04T06:15:31.093Z,18.44
2018-03-04T06:16:31.094Z,18.38
2018-03-04T06:17:31.096Z,18.38
2018-03-04T06:18:31.098Z,18.44
2018-03-04T06:19:31.100Z,18.57
2018-03-04T06:20:31.102Z,18.57
2018-03-04T06:21:31.104Z,18.57
2018-03-04T06:22:31.106Z,18.57
2018-03-04T06:23:31.108Z,18.54
2018-03-04T06:24:31.110Z,18.62
2018-03-04T06:25:31.111Z,18.65
2018-03-04T06:26:31.115Z,18.66
2018-03-04T06:27:31.115Z,18.64
2018-03-04T06:28:31.124Z,18.59
2018-03-04T06:29:31.120Z,18.75
2018-03-04T06:30:31.124Z,18.78
2018-03-04T06:31:31.128Z,18.83
2018-03-04T06:32:31.128Z,18.72
2018-03-04T06:33:31.130Z,18.90
2018-03-04T06:34:31.131Z,18.99
2018-03-04T06:35:31.134Z,18.94
2018-03-04T06:36:31.136Z,19.01
2018-03-04T06:37:31.139Z,19.02
2018-03-04T06:38:31.142Z,19.02
2018-03-04T06:39:31.144Z,19.02
2018-03-04T06:40:31.146Z,19.09
2018-03-04T06:41:31.159Z,19.17
2018-03-04T06:42:31.152Z,19.20
2018-03-04T06:43:31.152Z,19.15
2018-03-04T06:44:31.156Z,19.20
2018-03-04T06:45:31.159Z,19.25
2018-03-04T06:46:31.162Z,19.32
2018-03-04T06:47:31.163Z,19.24
2018-03-04T06:48:31.167Z,19.30
2018-03-04T06:49:31.169Z,19.35
2018-03-04T06:50:31.174Z,19.42
2018-03-04T06:51:31.175Z,19.43
2018-03-04T06:52:31.176Z,19.45
2018-03-04T06:53:31.180Z,19.49
2018-03-04T06:54:31.183Z,19.58
2018-03-04T06:55:31.188Z,19.55
2018-03-04T06:56:31.188Z,19.65
2018-03-04T06:57:31.191Z,19.64
2018-03-04T06:58:31.194Z,19.57
2018-03-04T06:59:31.196Z,19.64
2018-03-04T07:00:31.200Z,19.62
2018-03-04T07:01:31.201Z,19.67
2018-03-04T07:02:31.208Z,19.71
2018-03-04T07:03:31.208Z,19.70
2018-03-04T07:04:31.211Z,19.70
2018-03-04T07:05:31.215Z,19.75
2018-03-04T07:06:31.217Z,19.70
2018-03-04T07:07:31.219Z,19.80
2018-03-04T07:08:31.223Z,19.76
2018-03-04T07:09:31.228Z,19.82
2018-03-04T07:10:31.241Z,19.82
2018-03-04T07:11:31.231Z,19.82
2018-03-04T07:12:31.234Z,19.87
2018-03-04T07:13:31.237Z,19.83
2018-03-04T07:14:31.240Z,19.94
2018-03-04T07:15:31.242Z,19.87
2018-03-04T07:16:31.245Z,20.01
2018-03-04T07:17:31.249Z,19.98
2018-03-04T07:18:31.257Z,20.00
2018-03-04T07:19:31.254Z,20.02
2018-03-04T07:20:31.258Z,20.05
2018-03-04T07:21:31.262Z,20.10
2018-03-04T07:22:31.266Z,20.13
2018-03-04T07:23:31.305Z,20.10
2018-03-04T07:24:31.275Z,20.10
2018-03-04T07:25:31.274Z,20.19
2018-03-04T07:26:31.276Z,20.17
2018-03-04T07:27:31.281Z,20.16
2018-03-04T07:28:31.283Z,20.12
2018-03-04T07:29:31.288Z,20.22
2018-03-04T07:30:31.290Z,20.23
2018-03-04T07:31:31.293Z,20.20
2018-03-04T07:32:31.297Z,20.34
2018-03-04T07:33:31.299Z,20.30
2018-03-04T07:34:31.303Z,20.31
2018-03-04T07:35:31.305Z,20.38
2018-03-04T07:36:31.311Z,20.33
2018-03-04T07:37:31.312Z,20.37
2018-03-04T07:38:31.315Z,20.34
2018-03-04T07:39:31.320Z,20.42
2018-03-04T07:40:31.322Z,20.46
2018-03-04T07:41:31.332Z,20.48
2018-03-04T07:42:31.330Z,20.44
2018-03-04T07:43:31.332Z,20.37
2018-03-04T07:44:31.337Z,20.44
2018-03-04T07:45:31.341Z,20.50
2018-03-04T07:46:31.344Z,20.53
2018-03-04T07:47:31.348Z,20.56
2018-03-04T07:48:31.350Z,20.50
2018-03-04T07:49:31.354Z,20.64
2018-03-04T07:50:31.358Z,20.60
2018-03-04T07:51:31.361Z,20.64
2018-03-04T07:52:31.423Z,20.66
2018-03-04T07:53:31.368Z,20.66
2018-03-04T07:54:31.370Z,20.68
2018-03-04T07:55:31.375Z,20.68
2018-03-04T07:56:31.378Z,20.79
2018-03-04T07:57:31.381Z,20.79
2018-03-04T07:58:31.388Z,20.82
2018-03-04T07:59:31.393Z,20.73
2018-03-04T08:00:31.392Z,20.82
2018-03-04T08:01:31.396Z,20.81
2018-03-04T08:02:31.402Z,20.91
2018-03-04T08:03:31.404Z,20.90
2018-03-04T08:04:31.409Z,20.98
2018-03-04T08:05:31.412Z,21.03
2018-03-04T08:06:31.417Z,21.05
2018-03-04T08:07:31.417Z,21.05
2018-03-04T08:08:31.421Z,20.98
2018-03-04T08:09:31.427Z,20.94
2018-03-04T08:10:31.429Z,21.05
2018-03-04T08:11:31.441Z,21.06
2018-03-04T08:12:31.437Z,21.06
2018-03-04T08:13:31.442Z,21.18
2018-03-04T08:14:31.445Z,21.05
2018-03-04T08:15:31.449Z,21.19
2018-03-04T08:16:31.453Z,21.13
2018-03-04T08:17:31.458Z,21.15
2018-03-04T08:18:31.516Z,21.27
2018-03-04T08:19:31.466Z,21.27
2018-03-04T08:20:31.468Z,21.28
2018-03-04T08:21:31.473Z,21.38
2018-03-04T08:22:31.477Z,21.55
2018-03-04T08:23:31.496Z,21.61
2018-03-04T08:24:31.485Z,21.71
2018-03-04T08:25:31.488Z,21.75
2018-03-04T08:26:31.496Z,21.70
2018-03-04T08:27:31.494Z,21.82
2018-03-04T08:28:31.509Z,21.74
2018-03-04T08:29:31.504Z,21.83
2018-03-04T08:30:31.508Z,21.81
2018-03-04T08:31:31.510Z,21.89
2018-03-04T08:32:31.516Z,21.91
2018-03-04T08:33:31.521Z,22.02
2018-03-04T08:34:31.575Z,21.89
2018-03-04T08:35:31.527Z,21.96
2018-03-04T08:36:31.535Z,21.98
2018-03-04T08:37:31.537Z,21.99
2018-03-04T08:38:31.541Z,21.91
2018-03-04T08:39:31.552Z,21.94
2018-03-04T08:40:31.550Z,21.93
2018-03-04T08:41:31.554Z,21.93
2018-03-04T08:42:31.558Z,22.09
2018-03-04T08:43:31.562Z,22.02
2018-03-04T08:44:31.566Z,22.01
2018-03-04T08:45:31.575Z,21.98
2018-03-04T08:46:31.580Z,22.06
2018-03-04T08:47:31.579Z,22.08
2018-03-04T08:48:31.583Z,22.11
2018-03-04T08:49:31.588Z,22.02
2018-03-04T08:50:31.594Z,22.06
2018-03-04T08:51:31.597Z,22.01
2018-03-04T08:52:31.602Z,22.05
2018-03-04T08:53:31.607Z,22.06
2018-03-04T08:54:31.612Z,22.04
2018-03-04T08:55:31.617Z,22.05
2018-03-04T08:56:31.623Z,22.06
2018-03-04T08:57:31.626Z,22.11
2018-03-04T08:58:31.631Z,22.08
2018-03-04T08:59:31.635Z,22.11
2018-03-04T09:00:31.641Z,22.19
2018-03-04T09:01:31.645Z,22.11
2018-03-04T09:02:31.648Z,22.15
2018-03-04T09:03:31.711Z,22.17
2018-03-04T09:04:31.659Z,22.19
2018-03-04T09:05:31.666Z,22.09
2018-03-04T09:06:31.668Z,22.17
2018-03-04T09:07:31.672Z,22.24
2018-03-04T09:08:31.680Z,22.20
2018-03-04T09:09:31.739Z,22.17
2018-03-04T09:10:31.688Z,22.29
2018-03-04T09:11:31.692Z,22.24
2018-03-04T09:12:31.698Z,22.24
2018-03-04T09:13:31.702Z,22.27
2018-03-04T09:14:31.708Z,22.24
2018-03-04T09:15:31.714Z,22.26
2018-03-04T09:16:31.719Z,22.24
2018-03-04T09:17:31.721Z,22.27
2018-03-04T09:18:31.731Z,22.30
2018-03-04T09:19:31.731Z,22.26
2018-03-04T09:20:31.736Z,22.29
2018-03-04T09:21:31.742Z,22.24
2018-03-04T09:22:31.746Z,22.21
2018-03-04T09:23:31.751Z,22.33
2018-03-04T09:24:31.755Z,22.30
2018-03-04T09:25:31.763Z,22.38
2018-03-04T09:26:31.767Z,22.39
2018-03-04T09:27:31.770Z,22.42
2018-03-04T09:28:31.776Z,22.35
2018-03-04T09:29:31.780Z,22.33
2018-03-04T09:30:31.787Z,22.29
2018-03-04T09:31:31.790Z,22.36
2018-03-04T09:32:31.801Z,22.42
2018-03-04T09:33:31.804Z,22.42
2018-03-04T09:34:31.806Z,22.45
2018-03-04T09:35:31.810Z,22.42
2018-03-04T09:36:31.816Z,22.42
2018-03-04T09:37:31.821Z,22.45
2018-03-04T09:38:31.851Z,22.48
2018-03-04T09:39:31.831Z,22.56
2018-03-04T09:40:31.836Z,22.45
2018-03-04T09:41:31.840Z,22.59
2018-03-04T09:42:31.846Z,22.57
2018-03-04T09:43:31.849Z,22.70
2018-03-04T09:44:31.856Z,22.60
2018-03-04T09:45:31.891Z,22.70
2018-03-04T09:46:31.866Z,22.63
2018-03-04T09:47:31.871Z,22.61
2018-03-04T09:48:31.894Z,22.66
2018-03-04T09:49:31.881Z,22.66
2018-03-04T09:50:31.888Z,22.67
2018-03-04T09:51:31.891Z,22.61
2018-03-04T09:52:31.896Z,22.78
2018-03-04T09:53:31.903Z,22.75
2018-03-04T09:54:31.908Z,22.81
2018-03-04T09:55:31.913Z,22.76
2018-03-04T09:56:31.916Z,22.82
2018-03-04T09:57:31.922Z,22.78
2018-03-04T09:58:31.927Z,22.81
2018-03-04T09:59:31.933Z,22.88
2018-03-04T10:00:31.937Z,22.79
2018-03-04T10:01:31.944Z,22.79
2018-03-04T10:02:31.949Z,22.75
2018-03-04T10:03:31.952Z,22.84
2018-03-04T10:04:31.959Z,22.72
2018-03-04T10:05:31.964Z,22.81
2018-03-04T10:06:31.970Z,22.89
2018-03-04T10:07:31.973Z,22.82
2018-03-04T10:08:31.980Z,22.86
2018-03-04T10:09:31.987Z,22.93
2018-03-04T10:10:31.989Z,22.94
2018-03-04T10:11:31.995Z,22.94
2018-03-04T10:12:32.000Z,22.96
2018-03-04T10:13:32.006Z,22.89
2018-03-04T10:14:32.015Z,22.89
2018-03-04T10:15:32.015Z,22.88
2018-03-04T10:16:32.020Z,23.00
2018-03-04T10:17:32.025Z,22.96
2018-03-04T10:18:32.032Z,22.96
2018-03-04T10:19:32.035Z,22.96
2018-03-04T10:20:32.042Z,23.04
2018-03-04T10:21:32.047Z,23.11
2018-03-04T10:22:32.054Z,23.16
2018-03-04T10:23:32.058Z,23.12
2018-03-04T10:24:32.061Z,23.03
2018-03-04T10:25:32.071Z,23.15
2018-03-04T10:26:32.074Z,23.16
2018-03-04T10:27:32.078Z,23.15
2018-03-04T10:28:32.086Z,23.16
2018-03-04T10:29:32.090Z,23.18
2018-03-04T10:30:32.096Z,23.16
2018-03-04T10:31:32.147Z,23.23
2018-03-04T10:32:32.110Z,23.23
2018-03-04T10:33:32.111Z,23.21
2018-03-04T10:34:32.119Z,23.25
2018-03-04T10:35:32.124Z,23.32
2018-03-04T10:36:32.137Z,23.23
2018-03-04T10:37:32.133Z,23.23
2018-03-04T10:38:32.140Z,23.25
2018-03-04T10:39:32.144Z,23.25
2018-03-04T10:40:32.148Z,23.19
2018-03-04T10:41:32.154Z,23.26
2018-03-04T10:42:32.161Z,23.26
2018-03-04T10:43:32.163Z,23.29
2018-03-04T10:44:32.170Z,23.32
2018-03-04T10:45:32.177Z,23.31
2018-03-04T10:46:32.181Z,23.42
2018-03-04T10:47:32.186Z,23.39
2018-03-04T10:48:32.192Z,23.31
2018-03-04T10:49:32.197Z,23.44
2018-03-04T10:50:32.204Z,23.41
2018-03-04T10:51:32.209Z,23.42
2018-03-04T10:52:32.213Z,23.49
2018-03-04T10:53:32.220Z,23.38
2018-03-04T10:54:32.225Z,23.39
2018-03-04T10:55:32.230Z,23.50
2018-03-04T10:56:32.235Z,23.57
2018-03-04T10:57:32.242Z,23.57
2018-03-04T10:58:32.248Z,23.53
2018-03-04T10:59:32.252Z,23.54
2018-03-04T11:00:32.259Z,23.57
2018-03-04T11:01:32.267Z,23.45
2018-03-04T11:02:32.271Z,23.54
2018-03-04T11:03:32.274Z,23.52
2018-03-04T11:04:32.281Z,23.52
2018-03-04T11:05:32.290Z,23.53
2018-03-04T11:06:32.293Z,23.53
2018-03-04T11:07:32.297Z,23.42
2018-03-04T11:08:32.307Z,23.56
2018-03-04T11:09:32.309Z,23.56
2018-03-04T11:10:32.315Z,23.54
2018-03-04T11:11:32.354Z,23.56
2018-03-04T11:12:32.325Z,23.57
2018-03-04T11:13:32.333Z,23.53
2018-03-04T11:14:32.338Z,23.62
2018-03-04T11:15:32.344Z,23.77
2018-03-04T11:16:32.348Z,23.69
2018-03-04T11:17:32.366Z,23.63
2018-03-04T11:18:32.361Z,23.74
2018-03-04T11:19:32.365Z,23.64
2018-03-04T11:20:32.398Z,23.63
2018-03-04T11:21:32.379Z,23.74
2018-03-04T11:22:32.384Z,23.74
2018-03-04T11:23:32.394Z,23.72
2018-03-04T11:24:32.395Z,23.74
2018-03-04T11:25:32.401Z,23.64
2018-03-04T11:26:32.438Z,23.63
2018-03-04T11:27:32.412Z,23.56
2018-03-04T11:28:32.454Z,23.69
2018-03-04T11:29:32.425Z,23.72
2018-03-04T11:30:32.431Z,23.87
2018-03-04T11:31:32.436Z,23.78
2018-03-04T11:32:32.443Z,23.87
2018-03-04T11:33:32.449Z,23.82
2018-03-04T11:34:32.454Z,23.81
2018-03-04T11:35:32.460Z,23.78
2018-03-04T11:36:32.466Z,23.81
2018-03-04T11:37:32.480Z,23.79
2018-03-04T11:38:32.477Z,23.72
2018-03-04T11:39:32.489Z,23.60
2018-03-04T11:40:32.489Z,23.68
2018-03-04T11:41:32.495Z,23.81
2018-03-04T11:42:32.502Z,23.82
2018-03-04T11:43:32.506Z,23.82
2018-03-04T11:44:32.513Z,23.90
2018-03-04T11:45:32.520Z,23.84
2018-03-04T11:46:32.526Z,23.94
2018-03-04T11:47:32.531Z,23.96
2018-03-04T11:48:32.539Z,23.92
2018-03-04T11:49:32.543Z,23.84
2018-03-04T11:50:32.549Z,23.97
2018-03-04T11:51:32.554Z,23.89
2018-03-04T11:52:32.562Z,23.79
2018-03-04T11:53:32.568Z,23.90
2018-03-04T11:54:32.573Z,23.79
2018-03-04T11:55:32.581Z,23.97
2018-03-04T11:56:32.584Z,24.06
2018-03-04T11:57:32.592Z,24.09
2018-03-04T11:58:32.599Z,24.15
2018-03-04T11:59:32.604Z,24.21
2018-03-04T12:00:32.609Z,24.27
2018-03-04T12:01:32.615Z,24.31
2018-03-04T12:02:32.623Z,24.30
2018-03-04T12:03:32.630Z,24.19
2018-03-04T12:04:32.635Z,24.27
2018-03-04T12:05:32.641Z,24.14
2018-03-04T12:06:32.648Z,24.09
2018-03-04T12:07:32.657Z,24.19
2018-03-04T12:08:32.660Z,24.24
2018-03-04T12:09:32.728Z,24.27
2018-03-04T12:10:32.674Z,24.26
2018-03-04T12:11:32.680Z,24.24
2018-03-04T12:12:32.689Z,24.12
2018-03-04T12:13:32.694Z,24.18
2018-03-04T12:14:32.699Z,24.29
2018-03-04T12:15:32.707Z,24.08
2018-03-04T12:16:32.712Z,24.29
2018-03-04T12:17:32.718Z,24.26
2018-03-04T12:18:32.725Z,24.29
2018-03-04T12:19:32.731Z,24.31
2018-03-04T12:20:32.736Z,24.39
2018-03-04T12:21:32.744Z,24.44
2018-03-04T12:22:32.752Z,24.64
2018-03-04T12:23:32.757Z,24.60
2018-03-04T12:24:32.764Z,24.45
2018-03-04T12:25:32.770Z,24.53
2018-03-04T12:26:32.778Z,24.48
2018-03-04T12:27:32.784Z,24.49
2018-03-04T12:28:32.791Z,24.33
2018-03-04T12:29:32.798Z,24.24
2018-03-04T12:30:32.805Z,24.31
2018-03-04T12:31:32.814Z,24.46
2018-03-04T12:32:32.818Z,24.34
2018-03-04T12:33:32.824Z,24.31
2018-03-04T12:34:32.832Z,24.37
2018-03-04T12:35:32.837Z,24.42
2018-03-04T12:36:32.844Z,24.56
2018-03-04T12:37:32.850Z,24.46
2018-03-04T12:38:32.857Z,24.63
2018-03-04T12:39:32.862Z,24.59
2018-03-04T12:40:32.870Z,24.75
2018-03-04T12:41:32.875Z,24.70
2018-03-04T12:42:32.883Z,24.71
2018-03-04T12:43:32.890Z,24.97
2018-03-04T12:44:32.896Z,24.94
2018-03-04T12:45:32.904Z,24.92
2018-03-04T12:46:32.910Z,24.90
2018-03-04T12:47:32.946Z,24.84
2018-03-04T12:48:32.932Z,24.83
2018-03-04T12:49:32.931Z,24.82
2018-03-04T12:50:32.936Z,24.82
2018-03-04T12:51:32.984Z,24.79
2018-03-04T12:52:32.951Z,24.83